createdAt,value
2022-11-20T02:02:06.570Z,100229.56
2022-11-20T02:08:54.036Z,100222.16
2022-11-20T02:15:47.470Z,100233.13
2022-11-20T02:19:22.064Z,100226.22
2022-11-20T02:29:50.337Z,100211.94
2022-11-20T02:33:25.170Z,100216.31
2022-11-20T02:37:22.932Z,100225.72
2022-11-20T02:39:40.934Z,100222.22
2022-11-20T02:46:58.116Z,100223.06
2022-11-20T03:02:22.153Z,100226.41
2022-11-20T03:06:14.470Z,100223.75
2022-11-20T03:10:12.809Z,100217.72
2022-11-20T03:25:12.299Z,100212.53
2022-11-20T03:40:15.672Z,100194.47
2022-11-20T03:47:15.052Z,100189.34
2022-11-20T03:49:59.269Z,100187.59
2022-11-20T04:18:12.779Z,100190.03
2022-11-20T05:26:05.575Z,100157.38
2022-11-20T05:35:14.251Z,100152.25
2022-11-20T05:45:46.080Z,100147.78
2022-11-20T05:48:22.392Z,100145.16
2022-11-20T05:50:49.354Z,100142.34
2022-11-20T05:53:16.012Z,100144.84
2022-11-20T05:55:42.702Z,100137.78
2022-11-20T05:58:09.289Z,100135.34
2022-11-20T06:00:36.500Z,100140.72
2022-11-20T06:03:03.588Z,100142.25
2022-11-20T06:05:30.280Z,100139.66
2022-11-20T06:07:56.895Z,100131.03
2022-11-20T06:10:23.532Z,100141.50
2022-11-20T06:12:50.212Z,100137.94
2022-11-20T06:15:16.825Z,100141.44
2022-11-20T06:17:43.671Z,100137.97
2022-11-20T06:20:10.809Z,100136.34
2022-11-20T06:22:37.447Z,100131.97
2022-11-20T06:25:04.124Z,100136.16
2022-11-20T06:27:30.756Z,100134.53
2022-11-20T06:29:57.401Z,100140.63
2022-11-20T06:32:23.995Z,100136.34
2022-11-20T06:34:50.713Z,100140.81
2022-11-20T06:37:17.423Z,100134.66
2022-11-20T06:39:44.092Z,100129.44
2022-11-20T06:42:10.701Z,100133.75
2022-11-20T06:44:37.308Z,100136.44
2022-11-20T06:47:05.288Z,100134.53
2022-11-20T06:49:40.253Z,100130.22
2022-11-20T06:52:08.305Z,100125.88
2022-11-20T06:54:41.265Z,100127.50
2022-11-20T06:57:21.162Z,100132.72
2022-11-20T07:00:08.862Z,100130.22
2022-11-20T07:02:36.267Z,100130.22
2022-11-20T07:05:03.189Z,100123.22
2022-11-20T07:07:31.507Z,100124.88
2022-11-20T07:10:03.318Z,100121.34
2022-11-20T07:12:47.231Z,100133.44
2022-11-20T07:25:32.186Z,100128.16
2022-11-20T07:28:01.689Z,100130.72
2022-11-20T07:30:29.097Z,100128.84
2022-11-20T07:32:56.535Z,100122.78
2022-11-20T07:35:24.081Z,100124.47
2022-11-20T07:37:50.778Z,100123.63
2022-11-20T07:40:20.733Z,100121.69
2022-11-20T07:42:54.792Z,100126.59
2022-11-20T07:45:22.217Z,100127.88
2022-11-20T07:47:50.008Z,100122.88
2022-11-20T07:50:21.156Z,100114.28
2022-11-20T07:52:51.943Z,100115.09
2022-11-20T07:55:22.243Z,100115.84
2022-11-20T07:57:58.895Z,100119.25
2022-11-20T08:00:27.631Z,100120.03
2022-11-20T08:02:56.395Z,100126.16
2022-11-20T08:05:26.052Z,100115.69
2022-11-20T08:07:52.913Z,100120.13
2022-11-20T08:10:25.962Z,100120.91
2022-11-20T08:13:12.093Z,100113.09
2022-11-20T08:15:39.310Z,100119.03
2022-11-20T08:20:54.053Z,100112.91
2022-11-20T08:23:20.667Z,100111.13
2022-11-20T08:25:50.256Z,100109.28
2022-11-20T08:28:21.338Z,100109.91
2022-11-20T08:30:51.385Z,100100.13
2022-11-20T08:33:19.030Z,100101.81
2022-11-20T08:35:46.142Z,100101.47
2022-11-20T08:38:12.803Z,100100.69
2022-11-20T08:40:39.439Z,100103.41
2022-11-20T08:43:06.091Z,100090.28
2022-11-20T08:45:34.882Z,100090.97
2022-11-20T08:48:05.091Z,100099.69
2022-11-20T08:50:33.534Z,100090.81
2022-11-20T08:53:04.593Z,100098.38
2022-11-20T08:55:31.202Z,100096.56
2022-11-20T08:57:57.853Z,100100.72
2022-11-20T09:00:24.432Z,100098.66
2022-11-20T09:02:51.060Z,100092.22
2022-11-20T09:05:17.654Z,100082.56
2022-11-20T09:07:44.492Z,100089.00
2022-11-20T09:10:23.736Z,100093.41
2022-11-20T09:12:52.874Z,100096.25
2022-11-20T09:15:19.659Z,100101.56
2022-11-20T09:17:56.207Z,100097.94
2022-11-20T09:20:22.877Z,100102.34
2022-11-20T09:22:49.473Z,100108.41
2022-11-20T09:25:16.182Z,100104.16
2022-11-20T09:27:44.767Z,100099.00
2022-11-20T09:30:11.663Z,100104.72
2022-11-20T09:32:39.831Z,100097.91
2022-11-20T09:35:06.628Z,100094.53
2022-11-20T09:37:33.281Z,100090.16
2022-11-20T09:40:01.673Z,100093.59
2022-11-20T09:42:37.908Z,100096.16
2022-11-20T09:45:15.228Z,100092.72
2022-11-20T09:47:55.991Z,100098.06
2022-11-20T09:50:26.393Z,100082.47
2022-11-20T09:52:52.938Z,100084.19
2022-11-20T09:55:19.729Z,100084.28
2022-11-20T09:57:47.201Z,100081.47
2022-11-20T10:00:14.578Z,100079.69
2022-11-20T10:02:46.428Z,100071.75
2022-11-20T10:05:20.520Z,100067.47
2022-11-20T10:07:57.958Z,100079.63
2022-11-20T10:10:42.620Z,100065.69
2022-11-20T10:13:18.628Z,100069.88
2022-11-20T10:15:57.478Z,100066.22
2022-11-20T10:18:30.260Z,100056.63
2022-11-20T10:21:15.743Z,100051.47
2022-11-20T10:23:48.993Z,100041.84
2022-11-20T10:26:22.927Z,100044.97
2022-11-20T10:29:08.673Z,100043.88
2022-11-20T10:31:36.443Z,100039.47
2022-11-20T10:34:15.927Z,100039.41
2022-11-20T10:36:54.033Z,100036.44
2022-11-20T10:39:24.231Z,100044.16
2022-11-20T10:41:52.223Z,100046.41
2022-11-20T10:44:39.160Z,100045.88
2022-11-20T10:47:12.852Z,100043.00
2022-11-20T10:49:39.539Z,100043.00
2022-11-20T10:52:28.165Z,100036.81
2022-11-20T10:55:00.173Z,100039.19
2022-11-20T10:57:48.446Z,100032.16
2022-11-20T11:00:15.446Z,100039.84
2022-11-20T11:02:49.123Z,100047.88
2022-11-20T11:05:23.176Z,100049.53
2022-11-20T11:07:53.162Z,100043.69
2022-11-20T11:10:21.614Z,100041.03
2022-11-20T11:12:50.528Z,100044.44
2022-11-20T11:15:40.543Z,100045.34
2022-11-20T11:18:10.771Z,100040.16
2022-11-20T11:20:37.476Z,100031.56
2022-11-20T11:23:05.537Z,100040.50
2022-11-20T11:25:34.840Z,100029.97
2022-11-20T11:28:05.981Z,100018.78
2022-11-20T11:30:42.197Z,100035.25
2022-11-20T11:33:28.355Z,100025.88
2022-11-20T11:35:58.404Z,100020.41
2022-11-20T11:38:41.306Z,100021.38
2022-11-20T11:41:08.805Z,100023.03
2022-11-20T11:43:54.941Z,100017.19
2022-11-20T11:46:21.707Z,100024.31
2022-11-20T11:48:58.588Z,100020.84
2022-11-20T11:51:39.357Z,100005.88
2022-11-20T11:54:09.742Z,100021.16
2022-11-20T11:56:36.734Z,100009.84
2022-11-20T11:59:05.396Z,100011.72
2022-11-20T12:01:45.126Z,100005.00
2022-11-20T12:04:12.295Z,100006.78
2022-11-20T12:06:45.967Z,100007.00
2022-11-20T12:09:23.589Z,100013.22
2022-11-20T12:12:06.247Z,100006.31
2022-11-20T12:15:02.734Z,100000.28
2022-11-20T12:17:29.810Z,100012.41
2022-11-20T12:20:05.570Z,100007.31
2022-11-20T12:22:32.189Z,100000.13
2022-11-20T12:25:17.206Z,100011.25
2022-11-20T12:27:53.113Z,99997.53
2022-11-20T12:30:20.326Z,100000.06
2022-11-20T12:33:25.628Z,99994.25
2022-11-20T12:35:55.320Z,99990.00
2022-11-20T12:38:31.777Z,99983.69
2022-11-20T12:41:02.283Z,99984.25
2022-11-20T12:43:48.804Z,99984.88
2022-11-20T12:46:30.447Z,99981.44
2022-11-20T12:49:15.531Z,99972.03
2022-11-20T12:51:42.396Z,99984.44
2022-11-20T12:54:22.210Z,99984.03
2022-11-20T12:56:51.441Z,99981.53
2022-11-20T12:59:22.801Z,99992.25
2022-11-20T13:01:51.423Z,99972.38
2022-11-20T13:04:22.028Z,99981.13
2022-11-20T13:06:48.724Z,99973.53
2022-11-20T13:09:16.688Z,99965.19
2022-11-20T13:11:48.856Z,99962.44
2022-11-20T13:14:34.451Z,99966.78
2022-11-20T13:17:07.339Z,99962.38
2022-11-20T13:19:34.140Z,99959.19
2022-11-20T13:22:00.995Z,99964.78
2022-11-20T13:24:28.826Z,99968.59
2022-11-20T13:27:01.934Z,99966.78
2022-11-20T13:29:28.595Z,99974.06
2022-11-20T13:32:07.616Z,99960.88
2022-11-20T13:34:35.055Z,99957.31
2022-11-20T13:37:01.971Z,99963.50
2022-11-20T13:39:29.499Z,99964.16
2022-11-20T13:41:57.459Z,99958.53
2022-11-20T13:44:36.477Z,99959.25
2022-11-20T13:47:03.135Z,99960.06
2022-11-20T13:49:33.717Z,99955.66
2022-11-20T13:52:04.526Z,99956.97
2022-11-20T13:54:52.952Z,99953.28
2022-11-20T13:57:22.564Z,99951.31
2022-11-20T13:59:49.208Z,99947.16
2022-11-20T14:02:17.623Z,99959.38
2022-11-20T14:04:45.922Z,99951.72
2022-11-20T14:07:12.848Z,99953.69
2022-11-20T14:09:40.076Z,99945.84
2022-11-20T14:12:15.702Z,99952.44
2022-11-20T14:14:48.996Z,99954.78
2022-11-20T14:17:30.592Z,99956.28
2022-11-20T14:20:06.162Z,99963.63
2022-11-20T14:22:34.212Z,99966.19
2022-11-20T14:25:13.892Z,99965.19
2022-11-20T14:27:41.156Z,99953.69
2022-11-20T14:30:14.272Z,99944.84
2022-11-20T14:32:40.940Z,99951.84
2022-11-20T14:35:11.377Z,99938.63
2022-11-20T14:37:38.795Z,99940.44
2022-11-20T14:40:24.373Z,99940.53
2022-11-20T14:42:51.010Z,99946.56
2022-11-20T14:45:17.719Z,99947.56
2022-11-20T14:47:44.296Z,99943.84
2022-11-20T14:50:15.429Z,99945.59
2022-11-20T14:52:50.492Z,99949.09
2022-11-20T14:55:25.876Z,99939.63
2022-11-20T14:57:55.768Z,99949.09
2022-11-20T15:00:24.251Z,99940.50
2022-11-20T15:02:51.855Z,99939.59
2022-11-20T15:05:26.117Z,99930.09
2022-11-20T15:08:05.177Z,99942.16
2022-11-20T15:10:34.293Z,99935.31
2022-11-20T15:13:09.782Z,99932.69
2022-11-20T15:15:47.146Z,99937.75
2022-11-20T15:18:14.434Z,99934.44
2022-11-20T15:20:41.088Z,99924.16
2022-11-20T15:23:16.440Z,99926.78
2022-11-20T15:25:43.400Z,99933.06
2022-11-20T15:28:20.016Z,99929.78
2022-11-20T15:30:47.325Z,99924.56
2022-11-20T15:33:14.130Z,99928.19
2022-11-20T15:35:40.826Z,99933.47
2022-11-20T15:38:07.556Z,99922.09
2022-11-20T15:40:34.261Z,99925.53
2022-11-20T15:43:08.172Z,99923.66
2022-11-20T15:45:42.830Z,99923.72
2022-11-20T15:48:13.877Z,99917.31
2022-11-20T15:51:06.235Z,99923.41
2022-11-20T15:53:32.946Z,99922.56
2022-11-20T15:55:59.529Z,99922.38
2022-11-20T15:58:28.752Z,99915.34
2022-11-20T16:00:55.601Z,99920.47
2022-11-20T16:03:22.527Z,99920.78
2022-11-20T16:05:49.657Z,99919.00
2022-11-20T16:08:16.501Z,99918.09
2022-11-20T16:10:43.257Z,99910.97
2022-11-20T16:13:32.271Z,99908.34
2022-11-20T16:15:59.957Z,99904.97
2022-11-20T16:18:32.766Z,99907.88
2022-11-20T16:21:02.301Z,99899.16
2022-11-20T16:23:29.025Z,99902.09
2022-11-20T16:25:55.694Z,99897.94
2022-11-20T16:28:24.954Z,99901.41
2022-11-20T16:30:51.788Z,99897.00
2022-11-20T16:33:18.703Z,99911.88
2022-11-20T16:35:45.501Z,99908.28
2022-11-20T16:38:12.234Z,99916.94
2022-11-20T16:40:38.936Z,99920.63
2022-11-20T16:43:10.711Z,99912.78
2022-11-20T16:45:41.019Z,99918.03
2022-11-20T16:48:07.731Z,99914.47
2022-11-20T16:50:34.450Z,99917.00
2022-11-20T16:53:01.180Z,99917.16
2022-11-20T16:55:27.926Z,99918.50
2022-11-20T16:57:54.634Z,99923.84
2022-11-20T17:00:21.611Z,99917.91
2022-11-20T17:02:48.328Z,99919.94
2022-11-20T17:05:15.141Z,99927.78
2022-11-20T17:07:41.869Z,99923.41
2022-11-20T17:10:08.717Z,99929.00
2022-11-20T17:12:35.459Z,99924.66
2022-11-20T17:15:02.456Z,99918.69
2022-11-20T17:17:29.664Z,99917.72
2022-11-20T17:19:56.434Z,99911.53
2022-11-20T17:22:23.214Z,99905.59
2022-11-20T17:24:49.976Z,99913.19
2022-11-20T17:27:16.697Z,99905.41
2022-11-20T17:29:43.436Z,99918.22
2022-11-20T17:32:10.177Z,99920.09
2022-11-20T17:34:36.967Z,99914.16
2022-11-20T17:37:03.754Z,99920.44
2022-11-20T17:39:30.437Z,99916.03
2022-11-20T17:42:16.028Z,99917.78
2022-11-20T17:44:42.925Z,99912.56
2022-11-20T17:47:09.695Z,99918.66
2022-11-20T17:49:36.726Z,99911.59
2022-11-20T17:52:03.586Z,99920.25
2022-11-20T17:54:30.349Z,99914.09
2022-11-20T17:57:16.024Z,99916.72
2022-11-20T17:59:42.800Z,99911.59
2022-11-20T18:02:11.043Z,99918.47
2022-11-20T18:04:37.829Z,99913.25
2022-11-20T18:07:04.569Z,99910.69
2022-11-20T18:09:31.511Z,99905.47
2022-11-20T18:11:58.239Z,99901.91
2022-11-20T18:14:36.191Z,99894.00
2022-11-20T18:17:04.429Z,99903.63
2022-11-20T18:19:33.002Z,99891.31
2022-11-20T18:22:01.881Z,99881.75
2022-11-20T18:24:28.854Z,99875.56
2022-11-20T18:26:55.627Z,99881.75
2022-11-20T18:29:22.729Z,99880.91
2022-11-20T18:31:49.811Z,99871.38
2022-11-20T18:34:16.868Z,99862.78
2022-11-20T18:36:43.696Z,99867.09
2022-11-20T18:39:10.591Z,99869.78
2022-11-20T18:41:56.146Z,99875.81
2022-11-20T18:44:46.138Z,99868.81
2022-11-20T18:47:15.067Z,99874.16
2022-11-20T18:49:46.453Z,99875.94
2022-11-20T18:52:13.508Z,99872.38
2022-11-20T18:54:40.398Z,99881.03
2022-11-20T18:57:07.187Z,99872.31
2022-11-20T18:59:33.933Z,99875.69
2022-11-20T19:02:05.141Z,99867.03
2022-11-20T19:04:33.162Z,99871.38
2022-11-20T19:07:00.562Z,99873.06
2022-11-20T19:09:28.038Z,99871.47
2022-11-20T19:11:55.739Z,99890.16
2022-11-20T19:14:22.697Z,99886.72
2022-11-20T19:16:51.646Z,99872.69
2022-11-20T19:19:18.836Z,99871.63
2022-11-20T19:21:46.120Z,99874.28
2022-11-20T19:24:13.665Z,99879.59
2022-11-20T19:26:40.852Z,99884.03
2022-11-20T19:29:07.871Z,99874.34
2022-11-20T19:31:35.091Z,99875.91
2022-11-20T19:34:02.946Z,99871.59
2022-11-20T19:36:31.319Z,99874.28
2022-11-20T19:38:58.273Z,99870.97
2022-11-20T19:41:29.321Z,99863.97
2022-11-20T19:43:57.250Z,99859.63
2022-11-20T19:46:26.113Z,99856.88
2022-11-20T19:48:53.995Z,99866.38
2022-11-20T19:51:25.215Z,99871.59
2022-11-20T19:53:52.513Z,99870.63
2022-11-20T19:56:19.503Z,99869.97
2022-11-20T19:58:46.368Z,99859.44
2022-11-20T20:01:18.065Z,99861.13
2022-11-20T20:03:45.311Z,99870.72
2022-11-20T20:06:20.448Z,99863.56
2022-11-20T20:08:47.611Z,99861.91
2022-11-20T20:11:15.356Z,99852.44
2022-11-20T20:13:42.075Z,99857.91
2022-11-20T20:16:09.284Z,99849.34
2022-11-20T20:18:36.022Z,99857.13
2022-11-20T20:21:04.010Z,99847.69
2022-11-20T20:23:30.674Z,99847.69
2022-11-20T20:25:57.298Z,99842.53
2022-11-20T20:28:23.918Z,99847.69
2022-11-20T20:30:50.584Z,99842.78
2022-11-20T20:33:17.271Z,99852.28
2022-11-20T20:35:43.980Z,99845.16
2022-11-20T20:38:10.672Z,99837.63
2022-11-20T20:40:37.695Z,99836.84
2022-11-20T20:43:04.427Z,99840.47
2022-11-20T20:45:31.084Z,99841.25
2022-11-20T20:47:57.722Z,99828.44
2022-11-20T20:50:24.364Z,99830.41
2022-11-20T20:52:50.953Z,99833.78
2022-11-20T20:55:17.595Z,99832.72
2022-11-20T20:57:44.242Z,99826.78
2022-11-20T21:00:12.423Z,99818.19
2022-11-20T21:02:39.071Z,99817.09
2022-11-20T21:05:05.984Z,99822.44
2022-11-20T21:07:32.684Z,99818.97
2022-11-20T21:09:59.358Z,99819.88
2022-11-20T21:12:25.975Z,99816.63
2022-11-20T21:14:52.675Z,99805.44
2022-11-20T21:17:19.342Z,99815.03
2022-11-20T21:19:45.912Z,99807.22
2022-11-20T21:22:12.470Z,99810.84
2022-11-20T21:24:39.070Z,99801.41
2022-11-20T21:27:06.610Z,99795.47
2022-11-20T21:29:33.202Z,99793.69
2022-11-20T21:31:59.806Z,99795.59
2022-11-20T21:34:26.628Z,99792.06
2022-11-20T21:36:53.495Z,99786.22
2022-11-20T21:39:21.890Z,99785.38
2022-11-20T21:41:48.576Z,99784.69
2022-11-20T21:44:41.628Z,99779.53
2022-11-20T21:47:02.073Z,99781.13
2022-11-20T21:49:28.666Z,99773.53
2022-11-20T21:51:55.294Z,99782.19
2022-11-20T21:54:22.302Z,99789.19
2022-11-20T21:56:49.086Z,99776.19
2022-11-20T21:59:15.805Z,99779.72
2022-11-20T22:01:42.523Z,99775.50
2022-11-20T22:04:12.656Z,99779.94
2022-11-20T22:06:39.292Z,99766.88
2022-11-20T22:09:05.897Z,99769.56
2022-11-20T22:11:32.478Z,99760.94
2022-11-20T22:14:17.711Z,99761.84
2022-11-20T22:16:44.322Z,99758.53
2022-11-20T22:19:11.004Z,99753.41
2022-11-20T22:21:38.815Z,99738.66
2022-11-20T22:24:05.520Z,99747.50
2022-11-20T22:26:38.781Z,99751.00
2022-11-20T22:29:06.674Z,99751.81
2022-11-20T22:31:33.325Z,99753.53
2022-11-20T22:34:01.676Z,99750.91
2022-11-20T22:36:29.001Z,99747.53
2022-11-20T22:38:55.735Z,99744.03
2022-11-20T22:41:25.089Z,99738.91
2022-11-20T22:43:56.372Z,99750.19
2022-11-20T22:46:23.152Z,99737.34
2022-11-20T22:48:50.719Z,99745.16
2022-11-20T22:51:17.720Z,99743.31
2022-11-20T22:53:44.584Z,99742.44
2022-11-20T22:56:14.087Z,99741.56
2022-11-20T22:58:43.464Z,99732.94
2022-11-20T23:01:11.636Z,99726.09
2022-11-20T23:03:38.899Z,99724.44
2022-11-20T23:06:06.265Z,99724.41
2022-11-20T23:08:33.379Z,99727.75
2022-11-20T23:11:00.794Z,99721.75
2022-11-20T23:13:27.547Z,99725.53
2022-11-20T23:15:54.396Z,99715.16
2022-11-20T23:18:21.155Z,99716.22
2022-11-20T23:20:49.999Z,99711.84
2022-11-20T23:23:16.641Z,99708.41
2022-11-20T23:25:43.364Z,99718.06
2022-11-20T23:28:09.988Z,99712.94
2022-11-20T23:30:36.773Z,99711.31
2022-11-20T23:33:03.595Z,99714.84
2022-11-20T23:35:30.224Z,99707.97
2022-11-20T23:37:56.826Z,99708.91
2022-11-20T23:40:23.437Z,99708.03
2022-11-20T23:43:12.222Z,99708.97
2022-11-20T23:45:39.711Z,99694.25
2022-11-20T23:48:06.584Z,99701.16
2022-11-20T23:50:33.553Z,99696.88
2022-11-20T23:53:03.368Z,99696.75
2022-11-20T23:55:29.997Z,99689.88
2022-11-20T23:57:56.602Z,99680.28
